Startpagina
METAR-TAF:

METAR-TAF

Vliegvelden :

Florennes, België

Vliegbasis Florennes

breedte: 50-14N, lengte: 004-39E, hoogte: 279 m

Actueel weer

Dit bericht is 41 minuten geleden gemaakt, om 10:25 UTC
Wind 14 kt uit het oosten
Temperatuur 22°C
Vochtigheid 41%
Druk 1021 hPa
Zicht 10 km of meer

METAR: EBFS 261025Z AUTO 09014KT 9999 NCD 22/08 Q1021 BLU

Tijdstip: 13:06 (11:06 UTC)

Verwachting

Dit bericht is 19 uur en het 25 minuten geleden gemaakt, om 15:41 UTC
Verwachting geldig van 25 om 19 UTC tot 26 om 07 UTC
Wind 8 kt uit het noordoosten
Zicht 10 km of meer
Weinig wolken op 3000 ft

TAF: EBFS 251541Z 2519/2607 05008KT 9999 FEW030

Waarnemingen en weersverwachtingen van meer dan 4000 vliegvelden (METAR en TAF).

De beschikbare stations zijn de gele en rode punten op de kaart.

Ga met uw muis naar het station om de naam te zien.

Klik dan om waarnemingen en weersverwachtingen te zien.

kaart wijzigen: klik op de groene knoppen met een zwart kruis om in te zoomen, op de groene knop met een streepje om uit te zoomen of op de groene pijlen voor aangrenzende kaarten.


METAR-TAF: